Time;durP1;ratioP1;P1;durP2;ratioP2;P2;SDS_P1;SDS_P2;PMS_P1;PMS_P2;Temp;Humidity;BMP_temperature;BMP_pressure;BME280_temperature;BME280_humidity;BME280_pressure;Samples;Min_cycle;Max_cycle;Signal;HPM_P1;HPM_P2
2022/06/22 00:01:44;;;;;;;9.45;5.50;;;;;;;;;;5086723;28;20050;-33
2022/06/22 00:04:31;;;;;;;8.68;5.78;;;;;;;;;;5088822;28;20089;-32
2022/06/22 00:07:21;;;;;;;9.40;4.93;;;;;;;;;;5088711;28;20186;-33
2022/06/22 00:10:20;;;;;;;9.88;5.22;;;;;;;;;;5086584;28;20631;-33
2022/06/22 00:13:13;;;;;;;11.05;5.55;;;;;;;;;;5087915;28;20082;-33
2022/06/22 00:16:03;;;;;;;10.90;4.72;;;;;;;;;;5088589;28;20046;-33
2022/06/22 00:18:48;;;;;;;12.10;5.75;;;;;;;;;;5088528;28;20062;-33
2022/06/22 00:21:33;;;;;;;9.63;4.53;;;;;;;;;;5088587;28;20086;-33
2022/06/22 00:24:23;;;;;;;5.68;4.28;;;;;;;;;;5088640;28;20063;-33
2022/06/22 00:27:14;;;;;;;9.05;5.15;;;;;;;;;;5086190;28;20067;-33
2022/06/22 00:30:12;;;;;;;8.55;4.57;;;;;;;;;;5088413;28;20410;-33
2022/06/22 00:33:12;;;;;;;9.60;5.60;;;;;;;;;;5090846;28;20074;-32
2022/06/22 00:36:16;;;;;;;8.00;4.95;;;;;;;;;;5092416;28;20093;-33
2022/06/22 00:39:12;;;;;;;11.05;5.70;;;;;;;;;;5067737;28;20105;-33
2022/06/22 00:41:56;;;;;;;8.90;5.32;;;;;;;;;;5069276;28;20048;-34
2022/06/22 00:44:45;;;;;;;9.05;4.78;;;;;;;;;;5069222;28;20044;-33
2022/06/22 00:47:31;;;;;;;10.65;5.20;;;;;;;;;;5067479;28;20106;-33
2022/06/22 00:50:20;;;;;;;10.63;5.88;;;;;;;;;;5069503;28;20044;-32
2022/06/22 00:53:18;;;;;;;13.20;5.77;;;;;;;;;;5069643;28;20089;-32
2022/06/22 00:56:05;;;;;;;8.27;4.25;;;;;;;;;;5067250;28;20559;-33
2022/06/22 00:58:55;;;;;;;11.15;5.65;;;;;;;;;;5069140;28;20051;-32
2022/06/22 01:01:42;;;;;;;8.75;4.55;;;;;;;;;;5069062;28;20042;-32
2022/06/22 01:04:45;;;;;;;11.02;5.10;;;;;;;;;;5067991;28;20043;-33
2022/06/22 01:07:48;;;;;;;7.28;5.10;;;;;;;;;;5068840;28;20056;-32
2022/06/22 01:10:38;;;;;;;8.02;4.78;;;;;;;;;;5069201;28;20577;-32
2022/06/22 01:13:30;;;;;;;7.63;5.00;;;;;;;;;;5069117;28;20903;-33
2022/06/22 01:16:25;;;;;;;9.57;5.75;;;;;;;;;;5082431;28;20194;-34
2022/06/22 01:19:33;;;;;;;8.10;4.95;;;;;;;;;;5091474;28;20090;-32
2022/06/22 01:22:34;;;;;;;7.95;4.50;;;;;;;;;;5091085;28;20043;-32
2022/06/22 01:25:24;;;;;;;8.68;4.75;;;;;;;;;;5091495;28;20046;-33
2022/06/22 01:28:13;;;;;;;8.82;5.13;;;;;;;;;;5089421;28;20517;-33
2022/06/22 01:31:03;;;;;;;14.23;5.63;;;;;;;;;;5091379;28;20059;-33
2022/06/22 01:33:48;;;;;;;10.40;4.95;;;;;;;;;;5091506;28;20043;-32
2022/06/22 01:36:33;;;;;;;8.45;5.00;;;;;;;;;;5090177;28;20198;-34
2022/06/22 01:39:17;;;;;;;14.23;6.13;;;;;;;;;;5090969;28;20039;-33
2022/06/22 01:42:09;;;;;;;9.98;5.80;;;;;;;;;;5088769;28;20089;-33
2022/06/22 01:44:56;;;;;;;9.48;5.65;;;;;;;;;;5088887;28;20058;-32
2022/06/22 01:47:41;;;;;;;10.32;5.30;;;;;;;;;;5088341;28;20047;-32
2022/06/22 01:50:36;;;;;;;8.85;4.55;;;;;;;;;;5088801;28;20050;-34
2022/06/22 01:53:24;;;;;;;8.82;5.10;;;;;;;;;;5089291;28;20105;-32
2022/06/22 01:56:08;;;;;;;9.50;5.68;;;;;;;;;;5089446;28;20051;-33
2022/06/22 01:59:03;;;;;;;9.85;5.53;;;;;;;;;;5089222;28;20493;-32
2022/06/22 02:01:47;;;;;;;9.68;6.07;;;;;;;;;;5089254;28;20035;-31
2022/06/22 02:04:35;;;;;;;10.82;5.72;;;;;;;;;;5077425;28;20184;-32
2022/06/22 02:10:29;;;;;;;14.55;6.00;;;;;;;;;;5088957;28;20055;-32
2022/06/22 02:13:13;;;;;;;14.68;6.68;;;;;;;;;;5087009;28;20553;-31
2022/06/22 02:16:16;;;;;;;7.80;5.22;;;;;;;;;;5088844;28;20571;-32
2022/06/22 02:19:00;;;;;;;10.57;5.63;;;;;;;;;;5088051;28;20071;-31
2022/06/22 02:21:44;;;;;;;8.27;5.25;;;;;;;;;;5087425;28;20039;-36
2022/06/22 02:24:33;;;;;;;10.35;5.20;;;;;;;;;;5088758;28;20043;-36
2022/06/22 02:27:19;;;;;;;12.00;5.30;;;;;;;;;;5088656;28;20616;-36
2022/06/22 02:30:03;;;;;;;10.13;5.18;;;;;;;;;;5087331;28;20054;-39
2022/06/22 02:32:47;;;;;;;12.45;5.75;;;;;;;;;;5088538;28;20039;-36
2022/06/22 02:35:32;;;;;;;11.55;5.38;;;;;;;;;;5086348;28;20093;-36
2022/06/22 02:38:16;;;;;;;27.42;7.28;;;;;;;;;;5088578;28;20097;-36
2022/06/22 02:47:21;;;;;;;15.48;5.68;;;;;;;;;;5086168;28;20123;-36
2022/06/22 02:50:15;;;;;;;12.52;6.15;;;;;;;;;;5088376;28;20051;-37
2022/06/22 02:53:01;;;;;;;11.30;5.97;;;;;;;;;;5086579;28;20414;-36
2022/06/22 02:55:45;;;;;;;17.58;6.93;;;;;;;;;;5085682;28;20128;-39
2022/06/22 02:58:31;;;;;;;14.00;6.55;;;;;;;;;;5084925;28;20046;-36
2022/06/22 03:01:26;;;;;;;16.52;6.20;;;;;;;;;;5087510;28;20130;-36
2022/06/22 03:04:12;;;;;;;21.02;7.22;;;;;;;;;;5087932;28;20047;-36
2022/06/22 03:06:56;;;;;;;8.48;5.40;;;;;;;;;;5087701;28;20055;-36
2022/06/22 06:32:02;;;;;;;22.92;7.78;;;;;;;;;;5069375;28;20463;-72
2022/06/22 06:34:37;;;;;;;22.65;7.95;;;;;;;;;;5067750;28;20489;-69
2022/06/22 06:37:12;;;;;;;23.75;7.72;;;;;;;;;;5067989;28;20079;-65
2022/06/22 06:39:39;;;;;;;15.73;6.88;;;;;;;;;;5069262;28;20473;-67
2022/06/22 06:42:12;;;;;;;15.98;6.25;;;;;;;;;;5068903;28;20017;-69
2022/06/22 06:44:39;;;;;;;18.33;7.20;;;;;;;;;;5067410;28;20558;-70
2022/06/22 06:58:18;;;;;;;18.17;6.82;;;;;;;;;;5087868;27;20535;-41
2022/06/22 07:00:45;;;;;;;17.23;6.95;;;;;;;;;;5085941;28;20029;-45
2022/06/22 07:07:53;;;;;;;13.77;5.45;;;;;;;;;;5131013;27;20874;-69
2022/06/22 07:10:30;;;;;;;11.50;6.05;;;;;;;;;;5110653;28;20031;-71
2022/06/22 07:12:58;;;;;;;10.68;5.43;;;;;;;;;;5092501;28;20396;-69
2022/06/22 07:15:34;;;;;;;23.48;6.32;;;;;;;;;;5077614;28;20125;-69
2022/06/22 07:18:03;;;;;;;18.38;6.90;;;;;;;;;;5092258;28;20052;-71
2022/06/22 07:20:39;;;;;;;33.97;6.93;;;;;;;;;;5092149;28;20020;-72
2022/06/22 07:23:15;;;;;;;19.75;6.47;;;;;;;;;;5109916;28;20028;-73
2022/06/22 07:25:44;;;;;;;13.05;5.60;;;;;;;;;;5092815;28;20036;-71
2022/06/22 07:28:32;;;;;;;20.48;6.55;;;;;;;;;;5093470;28;20024;-69
2022/06/22 14:18:53;;;;;;;11.95;4.75;;;;;;;;;;5110453;27;20802;-35
2022/06/22 14:21:39;;;;;;;15.20;5.28;;;;;;;;;;5126882;27;20039;-35
2022/06/22 14:24:10;;;;;;;18.75;5.80;;;;;;;;;;5124307;28;20027;-35
2022/06/22 14:26:59;;;;;;;12.18;4.45;;;;;;;;;;5111241;27;20047;-35
2022/06/22 14:29:30;;;;;;;15.50;4.88;;;;;;;;;;5060999;28;20519;-36
2022/06/22 14:32:11;;;;;;;13.00;4.35;;;;;;;;;;5056876;28;20048;-36
2022/06/22 14:34:46;;;;;;;24.80;6.07;;;;;;;;;;5062514;28;20048;-36
2022/06/22 14:37:16;;;;;;;10.35;4.78;;;;;;;;;;5063141;28;20442;-35
2022/06/22 14:39:45;;;;;;;16.83;5.18;;;;;;;;;;5040405;28;20039;-35
2022/06/22 14:42:22;;;;;;;18.23;4.60;;;;;;;;;;5043398;28;20087;-36
2022/06/22 14:45:00;;;;;;;19.33;4.50;;;;;;;;;;5046099;28;20051;-36
2022/06/22 14:47:40;;;;;;;9.88;4.72;;;;;;;;;;5062789;28;20044;-35
2022/06/22 14:50:09;;;;;;;10.43;4.60;;;;;;;;;;5062914;28;20037;-35
2022/06/22 14:52:45;;;;;;;11.68;4.22;;;;;;;;;;5060501;28;20045;-35
2022/06/22 14:55:19;;;;;;;11.00;4.25;;;;;;;;;;5060569;28;20029;-35
2022/06/22 14:58:03;;;;;;;12.13;4.97;;;;;;;;;;5042143;28;20039;-35
2022/06/22 15:00:36;;;;;;;12.18;5.10;;;;;;;;;;5042717;28;20041;-35
2022/06/22 15:03:14;;;;;;;10.65;4.38;;;;;;;;;;5042682;28;20059;-36
2022/06/22 15:06:12;;;;;;;8.07;4.28;;;;;;;;;;5062383;28;20043;-36
2022/06/22 15:08:41;;;;;;;12.20;5.13;;;;;;;;;;5043541;28;20047;-36
2022/06/22 15:14:05;;;;;;;8.05;4.25;;;;;;;;;;5044190;28;20527;-36
2022/06/22 15:16:33;;;;;;;20.33;4.63;;;;;;;;;;5045227;28;20033;-41
2022/06/22 15:19:15;;;;;;;19.98;7.43;;;;;;;;;;5042451;28;20183;-40
2022/06/22 15:21:41;;;;;;;29.27;9.65;;;;;;;;;;5042094;28;20033;-38
2022/06/22 15:24:06;;;;;;;21.60;7.90;;;;;;;;;;5042230;28;20052;-38
2022/06/22 15:27:01;;;;;;;20.98;7.85;;;;;;;;;;5042191;28;20057;-35
2022/06/22 15:29:30;;;;;;;30.80;10.13;;;;;;;;;;5019098;28;20439;-37
2022/06/22 15:32:07;;;;;;;20.95;8.00;;;;;;;;;;5029513;28;20053;-38
2022/06/22 15:34:33;;;;;;;24.40;11.20;;;;;;;;;;5028399;28;20044;-37
2022/06/22 15:37:17;;;;;;;21.48;9.02;;;;;;;;;;5028584;28;20053;-36
2022/06/22 15:39:56;;;;;;;28.67;9.85;;;;;;;;;;5026755;28;20063;-37
2022/06/22 15:42:27;;;;;;;25.38;10.30;;;;;;;;;;5028718;28;20037;-35
2022/06/22 15:45:16;;;;;;;27.33;9.52;;;;;;;;;;5065854;28;20407;-41
2022/06/22 15:47:49;;;;;;;25.85;10.50;;;;;;;;;;5070255;28;20040;-38
2022/06/22 15:50:37;;;;;;;23.08;12.30;;;;;;;;;;5073559;28;20515;-44
2022/06/22 15:53:12;;;;;;;21.85;10.35;;;;;;;;;;5091047;28;20040;-39
2022/06/22 15:55:41;;;;;;;25.17;9.90;;;;;;;;;;5088643;28;20409;-36
2022/06/22 15:58:16;;;;;;;28.25;11.70;;;;;;;;;;5090384;28;20474;-38
2022/06/22 16:00:44;;;;;;;21.17;7.85;;;;;;;;;;5097298;28;20410;-37
2022/06/22 16:03:15;;;;;;;21.17;8.10;;;;;;;;;;5098665;28;20038;-39
2022/06/22 16:05:41;;;;;;;29.40;9.05;;;;;;;;;;5103801;28;20036;-38
2022/06/22 16:08:11;;;;;;;16.58;7.90;;;;;;;;;;5031847;27;277197;-38
2022/06/22 16:13:27;;;;;;;30.17;8.02;;;;;;;;;;5025925;28;263721;-38
2022/06/22 16:13:47;;;;;;;17.65;6.93;;;;;;;;;;5036479;28;20488;-38
2022/06/22 16:16:32;;;;;;;22.33;6.90;;;;;;;;;;5029359;28;20031;-37
2022/06/22 16:19:01;;;;;;;19.10;7.28;;;;;;;;;;5028852;28;20063;-38
2022/06/22 16:21:50;;;;;;;16.35;6.53;;;;;;;;;;5025974;28;20504;-38
2022/06/22 16:24:23;;;;;;;21.85;7.00;;;;;;;;;;5021076;28;20041;-37
2022/06/22 16:26:59;;;;;;;14.48;6.07;;;;;;;;;;5027330;28;20041;-37
2022/06/22 16:29:28;;;;;;;13.35;5.88;;;;;;;;;;5028863;28;20021;-37
2022/06/22 16:31:54;;;;;;;22.90;6.15;;;;;;;;;;5027818;28;20045;-39
2022/06/22 16:34:25;;;;;;;15.80;6.10;;;;;;;;;;5027434;28;20053;-37
2022/06/22 16:37:00;;;;;;;20.70;6.90;;;;;;;;;;5023693;28;20044;-38
2022/06/22 16:39:41;;;;;;;22.20;6.32;;;;;;;;;;5023062;28;20053;-39
2022/06/22 16:42:13;;;;;;;16.00;6.45;;;;;;;;;;5028036;28;20395;-38
2022/06/22 16:44:47;;;;;;;20.23;6.55;;;;;;;;;;5028790;28;20037;-38
2022/06/22 16:47:13;;;;;;;14.82;6.93;;;;;;;;;;5028518;28;20028;-37
2022/06/22 16:49:45;;;;;;;20.15;7.50;;;;;;;;;;5028410;28;20033;-35
2022/06/22 16:52:11;;;;;;;20.92;8.35;;;;;;;;;;5028221;28;20044;-37
2022/06/22 16:54:39;;;;;;;35.75;10.00;;;;;;;;;;5026180;28;20104;-38
2022/06/22 16:57:07;;;;;;;27.40;11.20;;;;;;;;;;5028456;28;20483;-38
2022/06/22 16:59:51;;;;;;;29.40;9.85;;;;;;;;;;5028168;28;20060;-37
2022/06/22 17:02:26;;;;;;;24.10;8.75;;;;;;;;;;5028308;28;20535;-36
2022/06/22 17:05:15;;;;;;;26.38;11.18;;;;;;;;;;5026038;28;20562;-37
2022/06/22 17:08:08;;;;;;;31.23;11.23;;;;;;;;;;5028208;28;20578;-37
2022/06/22 17:10:58;;;;;;;31.67;11.32;;;;;;;;;;5027908;28;20183;-37
2022/06/22 17:13:47;;;;;;;22.58;10.63;;;;;;;;;;5025983;28;20263;-39
2022/06/22 17:16:39;;;;;;;26.20;10.15;;;;;;;;;;5026830;28;20045;-36
2022/06/22 17:19:28;;;;;;;22.95;9.32;;;;;;;;;;5027737;28;20107;-36
2022/06/22 17:22:15;;;;;;;26.15;8.60;;;;;;;;;;5026906;28;20051;-48
2022/06/22 17:25:06;;;;;;;20.38;7.82;;;;;;;;;;5029287;28;20127;-36
2022/06/22 17:27:50;;;;;;;41.65;8.93;;;;;;;;;;5028029;28;20595;-44
2022/06/22 17:30:28;;;;;;;23.23;9.40;;;;;;;;;;5028763;28;20140;-37
2022/06/22 17:32:59;;;;;;;21.42;7.43;;;;;;;;;;5035141;28;20028;-48
2022/06/22 17:35:48;;;;;;;18.65;6.78;;;;;;;;;;5032566;28;20060;-40
2022/06/22 17:38:32;;;;;;;17.83;7.30;;;;;;;;;;5028108;28;20120;-55
2022/06/22 17:40:58;;;;;;;21.95;6.78;;;;;;;;;;5027819;28;20037;-40
2022/06/22 17:43:35;;;;;;;13.38;6.68;;;;;;;;;;5029210;28;20040;-41
2022/06/22 17:46:07;;;;;;;28.38;8.15;;;;;;;;;;5027817;28;20025;-38
2022/06/22 17:48:37;;;;;;;14.05;6.32;;;;;;;;;;5028471;28;20104;-40
2022/06/22 17:51:04;;;;;;;13.98;6.50;;;;;;;;;;5027841;28;20056;-45
2022/06/22 17:53:33;;;;;;;33.70;7.90;;;;;;;;;;5027976;28;20123;-40
2022/06/22 17:56:20;;;;;;;15.70;6.55;;;;;;;;;;5028701;28;20067;-40
2022/06/22 17:58:52;;;;;;;20.77;8.02;;;;;;;;;;5026241;28;20400;-44
2022/06/22 18:01:27;;;;;;;15.60;6.75;;;;;;;;;;5028541;28;20131;-46
2022/06/22 18:03:58;;;;;;;14.50;6.10;;;;;;;;;;5026856;28;20034;-44
2022/06/22 18:06:26;;;;;;;16.90;7.13;;;;;;;;;;5028083;28;20041;-45
2022/06/22 18:08:56;;;;;;;14.52;6.68;;;;;;;;;;5028636;28;20045;-41
2022/06/22 18:11:21;;;;;;;;;;;;;;;;;;5028631;28;20033;-59
2022/06/22 18:13:49;;;;;;;17.35;6.43;;;;;;;;;;5026708;28;19971;-38
2022/06/22 18:16:20;;;;;;;21.23;7.43;;;;;;;;;;5028066;28;20041;-40
2022/06/22 18:18:47;;;;;;;18.17;7.05;;;;;;;;;;5027912;28;20500;-41
2022/06/22 18:21:21;;;;;;;15.60;6.13;;;;;;;;;;5026106;28;20045;-40
2022/06/22 18:23:58;;;;;;;18.48;6.47;;;;;;;;;;5028286;28;20021;-39
2022/06/22 18:26:24;;;;;;;22.40;6.28;;;;;;;;;;5026985;28;20102;-52
2022/06/22 18:28:55;;;;;;;14.52;5.85;;;;;;;;;;5027581;28;20037;-40
2022/06/22 18:31:25;;;;;;;16.45;5.50;;;;;;;;;;5028755;28;20387;-42
2022/06/22 18:33:57;;;;;;;15.93;5.70;;;;;;;;;;5028679;28;20032;-54
2022/06/22 18:36:27;;;;;;;16.98;4.65;;;;;;;;;;5026950;28;21229;-42
2022/06/22 18:42:03;;;;;;;15.65;5.22;;;;;;;;;;5025421;28;20060;-42
2022/06/22 18:44:41;;;;;;;19.27;5.25;;;;;;;;;;5025740;28;20455;-41
2022/06/22 18:47:09;;;;;;;14.45;5.57;;;;;;;;;;5027928;28;20451;-41
2022/06/22 18:49:41;;;;;;;15.52;6.28;;;;;;;;;;5027665;28;20029;-41
2022/06/22 18:52:07;;;;;;;14.63;5.63;;;;;;;;;;5026979;28;20040;-54
2022/06/22 18:54:37;;;;;;;12.30;5.28;;;;;;;;;;5036267;28;20767;-41
2022/06/22 18:57:28;;;;;;;11.50;4.72;;;;;;;;;;5047860;28;20044;-41
2022/06/22 18:59:54;;;;;;;13.82;4.90;;;;;;;;;;5047610;28;20036;-43
2022/06/22 19:02:19;;;;;;;11.82;4.57;;;;;;;;;;5047836;28;20048;-41
2022/06/22 19:04:52;;;;;;;15.15;5.28;;;;;;;;;;5039557;28;20550;-41
2022/06/22 19:07:17;;;;;;;10.63;4.82;;;;;;;;;;5030174;28;20045;-41
2022/06/22 19:10:09;;;;;;;12.55;4.25;;;;;;;;;;5031848;28;20037;-41
2022/06/22 19:12:38;;;;;;;9.32;4.80;;;;;;;;;;5026819;28;20045;-41
2022/06/22 19:15:06;;;;;;;16.38;5.38;;;;;;;;;;5031538;28;20044;-41
2022/06/22 19:17:31;;;;;;;10.98;4.82;;;;;;;;;;5031318;28;20033;-41
2022/06/22 19:20:03;;;;;;;12.25;4.82;;;;;;;;;;5029000;28;20115;-43
2022/06/22 19:22:32;;;;;;;10.70;4.50;;;;;;;;;;5031077;28;20526;-42
2022/06/22 19:25:16;;;;;;;12.88;4.10;;;;;;;;;;5042421;28;20041;-42
2022/06/22 19:27:52;;;;;;;12.70;4.13;;;;;;;;;;5051450;28;20037;-41
2022/06/22 19:30:18;;;;;;;11.15;4.05;;;;;;;;;;5051592;28;20036;-41
2022/06/22 19:32:52;;;;;;;10.35;3.63;;;;;;;;;;5045045;28;20393;-49
2022/06/22 19:35:36;;;;;;;15.15;4.60;;;;;;;;;;5011629;28;20034;-40
2022/06/22 19:38:06;;;;;;;9.63;3.85;;;;;;;;;;5011117;28;20041;-45
2022/06/22 19:40:42;;;;;;;10.98;3.60;;;;;;;;;;5009923;28;20886;-41
2022/06/22 19:43:07;;;;;;;9.40;3.50;;;;;;;;;;5014187;28;20042;-41
2022/06/22 19:45:36;;;;;;;11.13;4.63;;;;;;;;;;5048868;28;20045;-52
2022/06/22 19:48:19;;;;;;;11.27;3.10;;;;;;;;;;5050777;28;20184;-41
2022/06/22 19:50:57;;;;;;;11.27;3.78;;;;;;;;;;5035154;28;20130;-41
2022/06/22 19:53:35;;;;;;;11.32;3.97;;;;;;;;;;5050791;28;20103;-42
2022/06/22 19:56:10;;;;;;;11.98;3.63;;;;;;;;;;5049518;28;20028;-41
2022/06/22 19:58:35;;;;;;;9.60;3.90;;;;;;;;;;5048056;28;20564;-42
2022/06/22 20:01:03;;;;;;;10.40;3.38;;;;;;;;;;5035567;28;20049;-41
2022/06/22 20:03:30;;;;;;;15.93;4.25;;;;;;;;;;5030760;28;20049;-41
2022/06/22 20:05:59;;;;;;;13.10;5.07;;;;;;;;;;5028418;28;20029;-53
2022/06/22 20:08:34;;;;;;;6.40;3.40;;;;;;;;;;5029065;28;20400;-42
2022/06/22 20:11:03;;;;;;;13.77;4.22;;;;;;;;;;5043649;28;20049;-42
2022/06/22 20:13:42;;;;;;;8.77;3.42;;;;;;;;;;5048333;28;20032;-42
2022/06/22 20:16:14;;;;;;;10.07;3.33;;;;;;;;;;5050415;28;20045;-42
2022/06/22 20:18:40;;;;;;;11.52;4.00;;;;;;;;;;5049465;28;20071;-52
2022/06/22 20:21:11;;;;;;;9.25;3.13;;;;;;;;;;5033087;28;20087;-42
2022/06/22 20:23:43;;;;;;;14.00;3.75;;;;;;;;;;5030267;28;20038;-42
2022/06/22 20:26:28;;;;;;;9.57;3.25;;;;;;;;;;5030110;28;20037;-48
2022/06/22 20:29:03;;;;;;;8.05;3.53;;;;;;;;;;5025965;28;20415;-41
2022/06/22 20:31:35;;;;;;;12.05;3.95;;;;;;;;;;5047539;28;20033;-41
2022/06/22 20:34:09;;;;;;;3.93;1.77;;;;;;;;;;5049270;28;20045;-42
2022/06/22 20:36:35;;;;;;;9.80;3.47;;;;;;;;;;5049277;28;20503;-41
2022/06/22 20:39:01;;;;;;;7.88;3.20;;;;;;;;;;5032130;28;20092;-52
2022/06/22 20:42:01;;;;;;;9.95;3.78;;;;;;;;;;5028454;28;20492;-42
2022/06/22 20:44:36;;;;;;;15.38;6.32;;;;;;;;;;5005237;28;20052;-49
2022/06/22 20:47:11;;;;;;;6.85;3.13;;;;;;;;;;5007864;28;20046;-42
2022/06/22 20:49:40;;;;;;;7.15;3.40;;;;;;;;;;5007666;28;20048;-39
2022/06/22 20:52:09;;;;;;;8.90;3.23;;;;;;;;;;5005653;28;20042;-41
2022/06/22 20:54:53;;;;;;;13.48;5.15;;;;;;;;;;5007775;28;20040;-35
2022/06/22 20:57:41;;;;;;;14.30;4.15;;;;;;;;;;5005307;28;20057;-36
2022/06/22 21:00:12;;;;;;;14.18;3.88;;;;;;;;;;5007275;28;20629;-35
2022/06/22 21:02:46;;;;;;;6.30;3.00;;;;;;;;;;5005923;28;20524;-48
2022/06/22 21:05:31;;;;;;;8.43;3.00;;;;;;;;;;5007816;28;20037;-36
2022/06/22 21:07:57;;;;;;;8.68;3.28;;;;;;;;;;5005989;28;20613;-48
2022/06/22 21:10:25;;;;;;;9.30;3.67;;;;;;;;;;5007092;28;20037;-36
2022/06/22 21:12:51;;;;;;;8.77;3.38;;;;;;;;;;5007358;28;20026;-35
2022/06/22 21:15:19;;;;;;;14.02;3.90;;;;;;;;;;5007420;28;20083;-35
2022/06/22 21:17:45;;;;;;;14.52;3.63;;;;;;;;;;5005305;28;20045;-36
2022/06/22 21:20:31;;;;;;;14.07;3.53;;;;;;;;;;4991595;28;20054;-35
2022/06/22 21:23:15;;;;;;;7.97;2.85;;;;;;;;;;5027392;28;20041;-38
2022/06/22 21:26:00;;;;;;;10.82;2.70;;;;;;;;;;5028991;28;20159;-35
2022/06/22 21:28:26;;;;;;;12.95;3.28;;;;;;;;;;5026939;28;20404;-35
2022/06/22 21:31:04;;;;;;;15.02;4.30;;;;;;;;;;5029305;28;20044;-36
2022/06/22 21:33:30;;;;;;;7.25;2.65;;;;;;;;;;5028690;28;20128;-36
2022/06/22 21:36:01;;;;;;;11.10;3.67;;;;;;;;;;5026922;28;20487;-36
2022/06/22 21:38:39;;;;;;;7.32;3.50;;;;;;;;;;5028960;28;20071;-35
2022/06/22 21:41:08;;;;;;;4.43;2.42;;;;;;;;;;5027699;28;20041;-47
2022/06/22 21:43:45;;;;;;;7.75;2.67;;;;;;;;;;5028495;28;20029;-35
2022/06/22 21:46:11;;;;;;;7.07;3.30;;;;;;;;;;5028774;28;20040;-35
2022/06/22 21:48:39;;;;;;;8.70;3.08;;;;;;;;;;5026986;28;20030;-40
2022/06/22 21:51:28;;;;;;;8.98;2.80;;;;;;;;;;5028643;28;20622;-35
2022/06/22 21:54:26;;;;;;;12.23;3.42;;;;;;;;;;4986475;28;20034;-47
2022/06/22 21:57:09;;;;;;;16.90;4.05;;;;;;;;;;4986584;28;20590;-35
2022/06/22 21:59:53;;;;;;;10.80;3.85;;;;;;;;;;4986974;28;20054;-35
2022/06/22 22:02:42;;;;;;;7.95;3.35;;;;;;;;;;4970217;28;20521;-35
2022/06/22 22:05:26;;;;;;;10.80;3.67;;;;;;;;;;4951779;28;20042;-35
2022/06/22 22:07:52;;;;;;;9.38;3.60;;;;;;;;;;4966130;28;20035;-44
2022/06/22 22:10:19;;;;;;;11.00;3.40;;;;;;;;;;4967541;28;20907;-41
2022/06/22 22:12:47;;;;;;;9.40;3.65;;;;;;;;;;4987136;28;20046;-35
2022/06/22 22:15:15;;;;;;;13.48;3.70;;;;;;;;;;4987136;28;20066;-35
2022/06/22 22:17:43;;;;;;;7.95;4.43;;;;;;;;;;4985092;28;20056;-36
2022/06/22 22:20:22;;;;;;;9.73;3.83;;;;;;;;;;4986917;28;20476;-35
2022/06/22 22:23:00;;;;;;;7.45;4.15;;;;;;;;;;4966692;28;20086;-44
2022/06/22 22:25:27;;;;;;;10.65;3.33;;;;;;;;;;4967525;28;20145;-35
2022/06/22 22:27:56;;;;;;;8.85;3.78;;;;;;;;;;4970352;28;20113;-36
2022/06/22 22:30:27;;;;;;;15.82;5.00;;;;;;;;;;4996455;28;20072;-41
2022/06/22 22:32:53;;;;;;;8.75;3.50;;;;;;;;;;5028529;28;20025;-35
2022/06/22 22:35:20;;;;;;;6.88;3.42;;;;;;;;;;5028180;28;20030;-36
2022/06/22 22:37:48;;;;;;;12.25;3.80;;;;;;;;;;5027067;28;20076;-46
2022/06/22 22:40:37;;;;;;;10.52;3.60;;;;;;;;;;5031529;28;20034;-36
2022/06/22 22:43:05;;;;;;;7.78;3.33;;;;;;;;;;5026003;28;20033;-36
2022/06/22 22:45:31;;;;;;;12.30;3.97;;;;;;;;;;5030685;28;20496;-36
2022/06/22 22:47:58;;;;;;;7.95;3.78;;;;;;;;;;5032045;28;20029;-36
2022/06/22 22:50:27;;;;;;;8.13;4.13;;;;;;;;;;5032153;28;20408;-35
2022/06/22 22:52:55;;;;;;;9.32;3.10;;;;;;;;;;5029859;28;20041;-35
2022/06/22 22:55:31;;;;;;;10.40;4.18;;;;;;;;;;5032243;28;20036;-35
2022/06/22 22:57:59;;;;;;;7.50;3.30;;;;;;;;;;5032114;28;20052;-36
2022/06/22 23:00:35;;;;;;;9.20;3.60;;;;;;;;;;5029777;28;20057;-36
2022/06/22 23:03:05;;;;;;;12.32;4.32;;;;;;;;;;5031884;28;20112;-36
2022/06/22 23:05:31;;;;;;;;;;;;;;;;;;5032356;28;20037;-36
2022/06/22 23:07:56;;;;;;;10.53;3.70;;;;;;;;;;5029789;28;20321;-36
2022/06/22 23:10:24;;;;;;;15.90;6.05;;;;;;;;;;5031910;28;20776;-36
2022/06/22 23:12:50;;;;;;;12.90;4.45;;;;;;;;;;5031464;28;20123;-36
2022/06/22 23:15:20;;;;;;;10.57;3.40;;;;;;;;;;5030093;28;20029;-46
2022/06/22 23:17:46;;;;;;;12.63;4.35;;;;;;;;;;5031745;28;20479;-35
2022/06/22 23:20:12;;;;;;;11.40;4.28;;;;;;;;;;5031808;28;20084;-35
2022/06/22 23:22:38;;;;;;;8.13;3.65;;;;;;;;;;5031115;28;20033;-35
2022/06/22 23:25:15;;;;;;;15.63;4.13;;;;;;;;;;5029497;28;20041;-35
2022/06/22 23:27:41;;;;;;;12.00;3.72;;;;;;;;;;5031478;28;20129;-35
2022/06/22 23:30:21;;;;;;;18.40;4.18;;;;;;;;;;5031616;28;20064;-35
2022/06/22 23:32:46;;;;;;;9.80;3.28;;;;;;;;;;5031358;28;20030;-35
2022/06/22 23:35:12;;;;;;;14.25;4.05;;;;;;;;;;5031347;28;20491;-35
2022/06/22 23:37:40;;;;;;;9.30;3.50;;;;;;;;;;5031351;28;20033;-35
2022/06/22 23:40:23;;;;;;;9.07;3.30;;;;;;;;;;5030205;28;20028;-36
2022/06/22 23:42:50;;;;;;;19.05;4.00;;;;;;;;;;5031090;28;20045;-35
2022/06/22 23:45:17;;;;;;;11.82;4.47;;;;;;;;;;5029193;28;20108;-36
2022/06/22 23:48:11;;;;;;;13.57;3.58;;;;;;;;;;5031084;28;20130;-36
2022/06/22 23:50:40;;;;;;;13.38;4.28;;;;;;;;;;5028470;28;20411;-36
2022/06/22 23:53:06;;;;;;;10.55;4.22;;;;;;;;;;5030680;28;20492;-36
2022/06/22 23:55:32;;;;;;;11.38;3.33;;;;;;;;;;5031250;28;20506;-35
2022/06/22 23:57:59;;;;;;;12.63;3.95;;;;;;;;;;5030329;28;20111;-48
